sensor_id;sensor_type;location;lat;lon;timestamp;P1;durP1;ratioP1;P2;durP2;ratioP2
10987;SDS011;5547;42.672;23.230;2023-04-03T00:00:21;2.00;;;1.60;;
10987;SDS011;5547;42.672;23.230;2023-04-03T00:03:22;2.17;;;1.80;;
10987;SDS011;5547;42.672;23.230;2023-04-03T00:06:23;2.67;;;1.73;;
10987;SDS011;5547;42.672;23.230;2023-04-03T00:09:24;2.77;;;1.80;;
10987;SDS011;5547;42.672;23.230;2023-04-03T00:12:25;2.22;;;1.40;;
10987;SDS011;5547;42.672;23.230;2023-04-03T00:15:25;2.23;;;1.43;;
10987;SDS011;5547;42.672;23.230;2023-04-03T00:18:26;1.60;;;1.30;;
10987;SDS011;5547;42.672;23.230;2023-04-03T00:21:26;1.50;;;1.40;;
10987;SDS011;5547;42.672;23.230;2023-04-03T00:24:27;2.30;;;1.50;;
10987;SDS011;5547;42.672;23.230;2023-04-03T00:27:27;1.77;;;1.30;;
10987;SDS011;5547;42.672;23.230;2023-04-03T00:30:27;1.57;;;1.20;;
10987;SDS011;5547;42.672;23.230;2023-04-03T00:33:28;1.83;;;1.30;;
10987;SDS011;5547;42.672;23.230;2023-04-03T00:36:28;1.58;;;1.20;;
10987;SDS011;5547;42.672;23.230;2023-04-03T00:39:29;2.27;;;1.57;;
10987;SDS011;5547;42.672;23.230;2023-04-03T00:42:30;1.77;;;1.45;;
10987;SDS011;5547;42.672;23.230;2023-04-03T00:45:36;2.87;;;1.80;;
10987;SDS011;5547;42.672;23.230;2023-04-03T00:48:42;1.80;;;1.42;;
10987;SDS011;5547;42.672;23.230;2023-04-03T00:51:47;2.08;;;1.50;;
10987;SDS011;5547;42.672;23.230;2023-04-03T00:54:49;2.40;;;1.80;;
10987;SDS011;5547;42.672;23.230;2023-04-03T00:57:52;2.72;;;1.60;;
10987;SDS011;5547;42.672;23.230;2023-04-03T01:00:54;2.15;;;1.48;;
10987;SDS011;5547;42.672;23.230;2023-04-03T01:04:01;2.30;;;1.80;;
10987;SDS011;5547;42.672;23.230;2023-04-03T01:07:22;2.88;;;1.65;;
10987;SDS011;5547;42.672;23.230;2023-04-03T01:10:24;2.10;;;1.50;;
10987;SDS011;5547;42.672;23.230;2023-04-03T01:13:30;1.95;;;1.30;;
10987;SDS011;5547;42.672;23.230;2023-04-03T01:16:31;2.50;;;1.42;;
10987;SDS011;5547;42.672;23.230;2023-04-03T01:19:32;2.50;;;1.40;;
10987;SDS011;5547;42.672;23.230;2023-04-03T01:22:40;2.10;;;1.33;;
10987;SDS011;5547;42.672;23.230;2023-04-03T01:25:47;1.70;;;1.10;;
10987;SDS011;5547;42.672;23.230;2023-04-03T01:28:49;1.77;;;1.40;;
10987;SDS011;5547;42.672;23.230;2023-04-03T01:31:54;2.33;;;1.30;;
10987;SDS011;5547;42.672;23.230;2023-04-03T01:34:56;2.65;;;1.90;;
10987;SDS011;5547;42.672;23.230;2023-04-03T01:37:56;2.13;;;1.43;;
10987;SDS011;5547;42.672;23.230;2023-04-03T01:40:57;1.80;;;1.50;;
10987;SDS011;5547;42.672;23.230;2023-04-03T01:43:57;2.20;;;1.60;;
10987;SDS011;5547;42.672;23.230;2023-04-03T01:46:57;2.08;;;1.58;;
10987;SDS011;5547;42.672;23.230;2023-04-03T01:49:58;2.00;;;1.57;;
10987;SDS011;5547;42.672;23.230;2023-04-03T01:52:58;2.17;;;1.70;;
10987;SDS011;5547;42.672;23.230;2023-04-03T01:55:58;1.80;;;1.40;;
10987;SDS011;5547;42.672;23.230;2023-04-03T01:58:59;1.73;;;1.40;;
10987;SDS011;5547;42.672;23.230;2023-04-03T02:02:00;1.60;;;1.40;;
10987;SDS011;5547;42.672;23.230;2023-04-03T02:05:00;2.50;;;1.67;;
10987;SDS011;5547;42.672;23.230;2023-04-03T02:08:01;2.60;;;1.47;;
10987;SDS011;5547;42.672;23.230;2023-04-03T02:11:01;2.38;;;1.63;;
10987;SDS011;5547;42.672;23.230;2023-04-03T02:14:02;2.03;;;1.70;;
10987;SDS011;5547;42.672;23.230;2023-04-03T02:17:02;2.88;;;2.10;;
10987;SDS011;5547;42.672;23.230;2023-04-03T02:20:05;2.80;;;2.20;;
10987;SDS011;5547;42.672;23.230;2023-04-03T02:23:06;4.35;;;2.70;;
10987;SDS011;5547;42.672;23.230;2023-04-03T02:26:07;2.10;;;1.80;;
10987;SDS011;5547;42.672;23.230;2023-04-03T02:29:11;2.72;;;1.92;;
10987;SDS011;5547;42.672;23.230;2023-04-03T02:32:12;2.57;;;2.10;;
10987;SDS011;5547;42.672;23.230;2023-04-03T02:35:12;2.80;;;2.30;;
10987;SDS011;5547;42.672;23.230;2023-04-03T02:38:12;3.50;;;2.30;;
10987;SDS011;5547;42.672;23.230;2023-04-03T02:41:13;2.57;;;2.20;;
10987;SDS011;5547;42.672;23.230;2023-04-03T02:44:14;2.50;;;2.30;;
10987;SDS011;5547;42.672;23.230;2023-04-03T02:47:14;2.50;;;2.10;;
10987;SDS011;5547;42.672;23.230;2023-04-03T02:50:15;2.37;;;2.00;;
10987;SDS011;5547;42.672;23.230;2023-04-03T02:53:15;2.88;;;1.98;;
10987;SDS011;5547;42.672;23.230;2023-04-03T02:56:16;2.40;;;2.10;;
10987;SDS011;5547;42.672;23.230;2023-04-03T02:59:18;2.72;;;2.00;;
10987;SDS011;5547;42.672;23.230;2023-04-03T03:02:18;2.87;;;2.17;;
10987;SDS011;5547;42.672;23.230;2023-04-03T03:05:18;3.43;;;2.70;;
10987;SDS011;5547;42.672;23.230;2023-04-03T03:08:19;2.70;;;2.50;;
10987;SDS011;5547;42.672;23.230;2023-04-03T03:11:20;2.60;;;2.40;;
10987;SDS011;5547;42.672;23.230;2023-04-03T03:14:20;2.70;;;2.50;;
10987;SDS011;5547;42.672;23.230;2023-04-03T03:17:21;2.53;;;2.33;;
10987;SDS011;5547;42.672;23.230;2023-04-03T03:20:21;3.33;;;2.70;;
10987;SDS011;5547;42.672;23.230;2023-04-03T03:23:22;2.90;;;2.50;;
10987;SDS011;5547;42.672;23.230;2023-04-03T03:26:25;3.30;;;2.63;;
10987;SDS011;5547;42.672;23.230;2023-04-03T03:29:26;4.10;;;3.50;;
10987;SDS011;5547;42.672;23.230;2023-04-03T03:32:27;3.13;;;2.83;;
10987;SDS011;5547;42.672;23.230;2023-04-03T03:35:27;3.10;;;2.90;;
10987;SDS011;5547;42.672;23.230;2023-04-03T03:38:27;3.17;;;2.87;;
10987;SDS011;5547;42.672;23.230;2023-04-03T03:41:28;3.20;;;2.90;;
10987;SDS011;5547;42.672;23.230;2023-04-03T03:44:28;4.00;;;3.35;;
10987;SDS011;5547;42.672;23.230;2023-04-03T03:47:29;6.43;;;4.80;;
10987;SDS011;5547;42.672;23.230;2023-04-03T03:50:29;4.43;;;3.63;;
10987;SDS011;5547;42.672;23.230;2023-04-03T03:53:30;4.80;;;3.67;;
10987;SDS011;5547;42.672;23.230;2023-04-03T03:56:30;4.17;;;3.57;;
10987;SDS011;5547;42.672;23.230;2023-04-03T03:59:31;4.85;;;3.60;;
10987;SDS011;5547;42.672;23.230;2023-04-03T04:02:31;3.72;;;3.33;;
10987;SDS011;5547;42.672;23.230;2023-04-03T04:05:32;3.77;;;3.23;;
10987;SDS011;5547;42.672;23.230;2023-04-03T04:08:32;4.43;;;3.70;;
10987;SDS011;5547;42.672;23.230;2023-04-03T04:11:32;4.00;;;3.40;;
10987;SDS011;5547;42.672;23.230;2023-04-03T04:14:33;4.10;;;3.50;;
10987;SDS011;5547;42.672;23.230;2023-04-03T04:17:34;3.97;;;3.57;;
10987;SDS011;5547;42.672;23.230;2023-04-03T04:20:35;4.03;;;3.45;;
10987;SDS011;5547;42.672;23.230;2023-04-03T04:23:35;5.03;;;4.23;;
10987;SDS011;5547;42.672;23.230;2023-04-03T04:26:35;5.40;;;4.27;;
10987;SDS011;5547;42.672;23.230;2023-04-03T04:29:36;5.10;;;3.80;;
10987;SDS011;5547;42.672;23.230;2023-04-03T04:32:37;4.22;;;3.80;;
10987;SDS011;5547;42.672;23.230;2023-04-03T04:35:37;4.03;;;3.50;;
10987;SDS011;5547;42.672;23.230;2023-04-03T04:38:38;4.17;;;3.77;;
10987;SDS011;5547;42.672;23.230;2023-04-03T04:41:38;7.32;;;3.65;;
10987;SDS011;5547;42.672;23.230;2023-04-03T04:44:39;5.23;;;3.97;;
10987;SDS011;5547;42.672;23.230;2023-04-03T04:47:40;5.40;;;4.27;;
10987;SDS011;5547;42.672;23.230;2023-04-03T04:50:40;5.88;;;4.28;;
10987;SDS011;5547;42.672;23.230;2023-04-03T04:53:40;5.00;;;3.63;;
10987;SDS011;5547;42.672;23.230;2023-04-03T04:56:41;3.92;;;3.53;;
10987;SDS011;5547;42.672;23.230;2023-04-03T04:59:42;7.13;;;3.70;;
10987;SDS011;5547;42.672;23.230;2023-04-03T05:02:42;3.13;;;2.83;;
10987;SDS011;5547;42.672;23.230;2023-04-03T05:05:43;3.80;;;3.08;;
10987;SDS011;5547;42.672;23.230;2023-04-03T05:08:43;4.67;;;3.70;;
10987;SDS011;5547;42.672;23.230;2023-04-03T05:11:43;4.07;;;3.67;;
10987;SDS011;5547;42.672;23.230;2023-04-03T05:14:44;4.03;;;3.10;;
10987;SDS011;5547;42.672;23.230;2023-04-03T05:17:44;3.07;;;2.77;;
10987;SDS011;5547;42.672;23.230;2023-04-03T05:20:45;5.40;;;2.90;;
10987;SDS011;5547;42.672;23.230;2023-04-03T05:23:48;2.97;;;2.50;;
10987;SDS011;5547;42.672;23.230;2023-04-03T05:26:48;2.97;;;2.50;;
10987;SDS011;5547;42.672;23.230;2023-04-03T05:29:49;3.00;;;2.60;;
10987;SDS011;5547;42.672;23.230;2023-04-03T05:32:50;3.10;;;2.40;;
10987;SDS011;5547;42.672;23.230;2023-04-03T05:35:50;2.57;;;2.07;;
10987;SDS011;5547;42.672;23.230;2023-04-03T05:38:51;4.13;;;3.03;;
10987;SDS011;5547;42.672;23.230;2023-04-03T05:41:51;3.87;;;3.33;;
10987;SDS011;5547;42.672;23.230;2023-04-03T05:44:52;3.95;;;3.65;;
10987;SDS011;5547;42.672;23.230;2023-04-03T05:47:52;3.93;;;3.43;;
10987;SDS011;5547;42.672;23.230;2023-04-03T05:50:52;10.67;;;9.10;;
10987;SDS011;5547;42.672;23.230;2023-04-03T05:53:55;12.23;;;10.33;;
10987;SDS011;5547;42.672;23.230;2023-04-03T05:57:02;11.50;;;8.60;;
10987;SDS011;5547;42.672;23.230;2023-04-03T06:00:04;11.03;;;8.07;;
10987;SDS011;5547;42.672;23.230;2023-04-03T06:03:06;12.10;;;8.10;;
10987;SDS011;5547;42.672;23.230;2023-04-03T06:06:06;10.18;;;7.82;;
10987;SDS011;5547;42.672;23.230;2023-04-03T06:09:08;8.70;;;6.63;;
10987;SDS011;5547;42.672;23.230;2023-04-03T06:12:08;7.10;;;5.85;;
10987;SDS011;5547;42.672;23.230;2023-04-03T06:15:09;8.60;;;4.97;;
10987;SDS011;5547;42.672;23.230;2023-04-03T06:18:10;3.58;;;2.85;;
10987;SDS011;5547;42.672;23.230;2023-04-03T06:21:10;4.23;;;3.00;;
10987;SDS011;5547;42.672;23.230;2023-04-03T06:24:12;3.70;;;3.30;;
10987;SDS011;5547;42.672;23.230;2023-04-03T06:27:15;4.35;;;3.10;;
10987;SDS011;5547;42.672;23.230;2023-04-03T06:30:15;4.50;;;3.30;;
10987;SDS011;5547;42.672;23.230;2023-04-03T06:33:16;4.18;;;3.70;;
10987;SDS011;5547;42.672;23.230;2023-04-03T06:36:17;4.53;;;3.72;;
10987;SDS011;5547;42.672;23.230;2023-04-03T06:39:20;4.80;;;3.10;;
10987;SDS011;5547;42.672;23.230;2023-04-03T06:42:22;2.70;;;2.20;;
10987;SDS011;5547;42.672;23.230;2023-04-03T06:45:23;2.60;;;2.40;;
10987;SDS011;5547;42.672;23.230;2023-04-03T06:48:25;2.05;;;1.85;;
10987;SDS011;5547;42.672;23.230;2023-04-03T06:51:26;3.27;;;2.40;;
10987;SDS011;5547;42.672;23.230;2023-04-03T06:54:28;3.70;;;2.42;;
10987;SDS011;5547;42.672;23.230;2023-04-03T06:57:28;2.93;;;2.30;;
10987;SDS011;5547;42.672;23.230;2023-04-03T07:00:29;4.53;;;3.05;;
10987;SDS011;5547;42.672;23.230;2023-04-03T07:03:30;3.53;;;2.43;;
10987;SDS011;5547;42.672;23.230;2023-04-03T07:06:31;4.28;;;2.40;;
10987;SDS011;5547;42.672;23.230;2023-04-03T07:09:33;4.22;;;2.92;;
10987;SDS011;5547;42.672;23.230;2023-04-03T07:12:34;3.00;;;2.13;;
10987;SDS011;5547;42.672;23.230;2023-04-03T07:15:34;2.70;;;2.17;;
10987;SDS011;5547;42.672;23.230;2023-04-03T07:18:36;3.00;;;2.40;;
10987;SDS011;5547;42.672;23.230;2023-04-03T07:21:36;2.90;;;2.40;;
10987;SDS011;5547;42.672;23.230;2023-04-03T07:24:36;3.70;;;2.70;;
10987;SDS011;5547;42.672;23.230;2023-04-03T07:27:37;3.00;;;2.30;;
10987;SDS011;5547;42.672;23.230;2023-04-03T07:33:44;2.58;;;2.30;;
10987;SDS011;5547;42.672;23.230;2023-04-03T07:36:45;2.88;;;2.40;;
10987;SDS011;5547;42.672;23.230;2023-04-03T07:39:45;2.30;;;2.03;;
10987;SDS011;5547;42.672;23.230;2023-04-03T07:42:45;2.73;;;2.10;;
10987;SDS011;5547;42.672;23.230;2023-04-03T07:45:47;3.67;;;1.90;;
10987;SDS011;5547;42.672;23.230;2023-04-03T07:48:51;2.80;;;2.00;;
10987;SDS011;5547;42.672;23.230;2023-04-03T07:51:52;2.53;;;1.80;;
10987;SDS011;5547;42.672;23.230;2023-04-03T07:54:53;2.80;;;1.67;;
10987;SDS011;5547;42.672;23.230;2023-04-03T07:57:53;2.50;;;1.87;;
10987;SDS011;5547;42.672;23.230;2023-04-03T08:00:53;2.00;;;1.70;;
10987;SDS011;5547;42.672;23.230;2023-04-03T08:03:54;3.08;;;2.22;;
10987;SDS011;5547;42.672;23.230;2023-04-03T08:06:54;2.83;;;2.10;;
10987;SDS011;5547;42.672;23.230;2023-04-03T08:09:55;2.73;;;2.10;;
10987;SDS011;5547;42.672;23.230;2023-04-03T08:12:56;2.92;;;2.45;;
10987;SDS011;5547;42.672;23.230;2023-04-03T08:15:56;2.75;;;2.50;;
10987;SDS011;5547;42.672;23.230;2023-04-03T08:18:57;4.28;;;2.45;;
10987;SDS011;5547;42.672;23.230;2023-04-03T08:21:57;4.00;;;2.30;;
10987;SDS011;5547;42.672;23.230;2023-04-03T08:24:58;4.70;;;3.00;;
10987;SDS011;5547;42.672;23.230;2023-04-03T08:28:00;5.22;;;4.72;;
10987;SDS011;5547;42.672;23.230;2023-04-03T08:31:02;6.70;;;5.00;;
10987;SDS011;5547;42.672;23.230;2023-04-03T08:34:06;8.70;;;6.70;;
10987;SDS011;5547;42.672;23.230;2023-04-03T08:37:08;9.57;;;7.90;;
10987;SDS011;5547;42.672;23.230;2023-04-03T08:40:12;9.20;;;7.67;;
10987;SDS011;5547;42.672;23.230;2023-04-03T08:50:38;11.57;;;8.05;;
10987;SDS011;5547;42.672;23.230;2023-04-03T08:53:43;14.15;;;8.13;;
10987;SDS011;5547;42.672;23.230;2023-04-03T08:57:11;8.80;;;6.97;;
10987;SDS011;5547;42.672;23.230;2023-04-03T09:03:16;11.52;;;7.90;;
10987;SDS011;5547;42.672;23.230;2023-04-03T09:06:20;13.23;;;9.50;;
10987;SDS011;5547;42.672;23.230;2023-04-03T09:09:31;11.20;;;8.93;;
10987;SDS011;5547;42.672;23.230;2023-04-03T09:12:39;10.68;;;8.48;;
10987;SDS011;5547;42.672;23.230;2023-04-03T09:15:43;10.75;;;8.43;;
10987;SDS011;5547;42.672;23.230;2023-04-03T09:18:45;13.10;;;8.48;;
10987;SDS011;5547;42.672;23.230;2023-04-03T09:21:52;15.07;;;9.82;;
10987;SDS011;5547;42.672;23.230;2023-04-03T09:25:00;11.75;;;9.77;;
10987;SDS011;5547;42.672;23.230;2023-04-03T09:28:08;12.27;;;9.35;;
10987;SDS011;5547;42.672;23.230;2023-04-03T09:34:22;16.10;;;11.27;;
10987;SDS011;5547;42.672;23.230;2023-04-03T09:37:35;15.07;;;11.57;;
10987;SDS011;5547;42.672;23.230;2023-04-03T09:40:44;16.52;;;11.85;;
10987;SDS011;5547;42.672;23.230;2023-04-03T09:43:53;16.98;;;10.45;;
10987;SDS011;5547;42.672;23.230;2023-04-03T09:46:54;17.13;;;11.70;;
10987;SDS011;5547;42.672;23.230;2023-04-03T09:53:35;13.75;;;10.50;;
10987;SDS011;5547;42.672;23.230;2023-04-03T09:56:35;12.82;;;10.40;;
10987;SDS011;5547;42.672;23.230;2023-04-03T09:59:37;15.70;;;10.40;;
10987;SDS011;5547;42.672;23.230;2023-04-03T10:02:41;11.50;;;8.80;;
10987;SDS011;5547;42.672;23.230;2023-04-03T10:05:42;11.75;;;8.05;;
10987;SDS011;5547;42.672;23.230;2023-04-03T10:08:43;11.95;;;8.18;;
10987;SDS011;5547;42.672;23.230;2023-04-03T10:12:02;12.93;;;8.27;;
10987;SDS011;5547;42.672;23.230;2023-04-03T10:15:13;9.73;;;6.53;;
10987;SDS011;5547;42.672;23.230;2023-04-03T10:18:26;8.07;;;6.07;;
10987;SDS011;5547;42.672;23.230;2023-04-03T10:27:58;4.37;;;3.73;;
10987;SDS011;5547;42.672;23.230;2023-04-03T10:34:44;5.53;;;3.03;;
10987;SDS011;5547;42.672;23.230;2023-04-03T10:48:02;3.92;;;2.88;;
10987;SDS011;5547;42.672;23.230;2023-04-03T10:51:35;3.77;;;2.70;;
10987;SDS011;5547;42.672;23.230;2023-04-03T10:54:41;4.63;;;2.95;;
10987;SDS011;5547;42.672;23.230;2023-04-03T10:57:49;3.58;;;2.85;;
10987;SDS011;5547;42.672;23.230;2023-04-03T11:00:50;5.67;;;2.90;;
10987;SDS011;5547;42.672;23.230;2023-04-03T11:03:56;3.83;;;2.70;;
10987;SDS011;5547;42.672;23.230;2023-04-03T11:07:03;7.00;;;3.20;;
10987;SDS011;5547;42.672;23.230;2023-04-03T11:10:15;5.95;;;3.50;;
10987;SDS011;5547;42.672;23.230;2023-04-03T11:13:45;4.65;;;3.08;;
10987;SDS011;5547;42.672;23.230;2023-04-03T11:20:20;5.53;;;2.87;;
10987;SDS011;5547;42.672;23.230;2023-04-03T11:23:34;4.03;;;2.80;;
10987;SDS011;5547;42.672;23.230;2023-04-03T11:26:37;4.25;;;2.97;;
10987;SDS011;5547;42.672;23.230;2023-04-03T11:29:41;4.50;;;3.70;;
10987;SDS011;5547;42.672;23.230;2023-04-03T11:32:54;8.48;;;5.63;;
10987;SDS011;5547;42.672;23.230;2023-04-03T11:36:24;7.47;;;5.03;;
10987;SDS011;5547;42.672;23.230;2023-04-03T11:42:34;6.18;;;4.35;;
10987;SDS011;5547;42.672;23.230;2023-04-03T11:46:00;6.30;;;5.55;;
10987;SDS011;5547;42.672;23.230;2023-04-03T11:49:01;5.72;;;5.07;;
10987;SDS011;5547;42.672;23.230;2023-04-03T11:52:01;7.00;;;6.20;;
10987;SDS011;5547;42.672;23.230;2023-04-03T11:55:02;6.90;;;5.97;;
10987;SDS011;5547;42.672;23.230;2023-04-03T11:58:29;7.00;;;5.57;;
10987;SDS011;5547;42.672;23.230;2023-04-03T12:01:44;11.15;;;8.32;;
10987;SDS011;5547;42.672;23.230;2023-04-03T12:11:39;6.05;;;5.40;;
10987;SDS011;5547;42.672;23.230;2023-04-03T12:14:40;6.63;;;5.18;;
10987;SDS011;5547;42.672;23.230;2023-04-03T12:17:41;6.07;;;5.20;;
10987;SDS011;5547;42.672;23.230;2023-04-03T12:27:26;6.57;;;5.97;;
10987;SDS011;5547;42.672;23.230;2023-04-03T12:30:34;6.32;;;5.38;;
10987;SDS011;5547;42.672;23.230;2023-04-03T12:33:43;6.90;;;6.18;;
10987;SDS011;5547;42.672;23.230;2023-04-03T12:44:13;6.95;;;6.22;;
10987;SDS011;5547;42.672;23.230;2023-04-03T12:47:33;8.10;;;7.30;;
10987;SDS011;5547;42.672;23.230;2023-04-03T12:50:39;9.37;;;7.37;;
10987;SDS011;5547;42.672;23.230;2023-04-03T12:53:41;7.85;;;7.05;;
10987;SDS011;5547;42.672;23.230;2023-04-03T12:56:44;9.50;;;7.72;;
10987;SDS011;5547;42.672;23.230;2023-04-03T12:59:45;9.32;;;8.32;;
10987;SDS011;5547;42.672;23.230;2023-04-03T13:02:46;8.32;;;7.53;;
10987;SDS011;5547;42.672;23.230;2023-04-03T13:05:47;9.30;;;8.02;;
10987;SDS011;5547;42.672;23.230;2023-04-03T13:08:51;9.65;;;8.65;;
10987;SDS011;5547;42.672;23.230;2023-04-03T13:11:57;10.18;;;9.18;;
10987;SDS011;5547;42.672;23.230;2023-04-03T13:15:20;9.27;;;8.27;;
10987;SDS011;5547;42.672;23.230;2023-04-03T13:18:33;9.43;;;7.70;;
10987;SDS011;5547;42.672;23.230;2023-04-03T13:21:34;9.85;;;8.27;;
10987;SDS011;5547;42.672;23.230;2023-04-03T13:24:36;11.37;;;9.57;;
10987;SDS011;5547;42.672;23.230;2023-04-03T13:27:38;12.48;;;9.85;;
10987;SDS011;5547;42.672;23.230;2023-04-03T13:30:54;13.52;;;11.68;;
10987;SDS011;5547;42.672;23.230;2023-04-03T13:34:03;13.40;;;10.35;;
10987;SDS011;5547;42.672;23.230;2023-04-03T13:37:11;12.60;;;10.20;;
10987;SDS011;5547;42.672;23.230;2023-04-03T13:40:20;12.70;;;10.45;;
10987;SDS011;5547;42.672;23.230;2023-04-03T13:43:21;15.93;;;13.10;;
10987;SDS011;5547;42.672;23.230;2023-04-03T13:46:27;15.88;;;12.95;;
10987;SDS011;5547;42.672;23.230;2023-04-03T13:49:29;19.17;;;15.38;;
10987;SDS011;5547;42.672;23.230;2023-04-03T13:52:38;16.45;;;13.20;;
10987;SDS011;5547;42.672;23.230;2023-04-03T13:59:20;15.52;;;13.52;;
10987;SDS011;5547;42.672;23.230;2023-04-03T14:02:31;14.60;;;12.60;;
10987;SDS011;5547;42.672;23.230;2023-04-03T14:05:33;15.70;;;12.53;;
10987;SDS011;5547;42.672;23.230;2023-04-03T14:08:33;14.00;;;12.48;;
10987;SDS011;5547;42.672;23.230;2023-04-03T14:11:34;14.47;;;12.90;;
10987;SDS011;5547;42.672;23.230;2023-04-03T14:14:36;15.02;;;12.48;;
10987;SDS011;5547;42.672;23.230;2023-04-03T14:17:38;14.40;;;11.83;;
10987;SDS011;5547;42.672;23.230;2023-04-03T14:20:38;9.82;;;8.82;;
10987;SDS011;5547;42.672;23.230;2023-04-03T14:23:39;10.40;;;9.27;;
10987;SDS011;5547;42.672;23.230;2023-04-03T14:26:39;9.80;;;8.47;;
10987;SDS011;5547;42.672;23.230;2023-04-03T14:29:41;7.78;;;7.07;;
10987;SDS011;5547;42.672;23.230;2023-04-03T14:32:41;8.23;;;7.30;;
10987;SDS011;5547;42.672;23.230;2023-04-03T14:35:42;9.93;;;8.45;;
10987;SDS011;5547;42.672;23.230;2023-04-03T14:38:43;8.65;;;7.20;;
10987;SDS011;5547;42.672;23.230;2023-04-03T14:41:45;8.93;;;8.05;;
10987;SDS011;5547;42.672;23.230;2023-04-03T14:44:45;9.13;;;7.97;;
10987;SDS011;5547;42.672;23.230;2023-04-03T14:50:49;7.93;;;7.13;;
10987;SDS011;5547;42.672;23.230;2023-04-03T14:53:50;7.15;;;5.95;;
10987;SDS011;5547;42.672;23.230;2023-04-03T14:56:51;7.35;;;6.57;;
10987;SDS011;5547;42.672;23.230;2023-04-03T14:59:52;9.25;;;8.25;;
10987;SDS011;5547;42.672;23.230;2023-04-03T15:02:52;7.83;;;6.93;;
10987;SDS011;5547;42.672;23.230;2023-04-03T15:05:53;8.03;;;7.00;;
10987;SDS011;5547;42.672;23.230;2023-04-03T15:08:55;8.68;;;7.78;;
10987;SDS011;5547;42.672;23.230;2023-04-03T15:11:56;6.57;;;5.93;;
10987;SDS011;5547;42.672;23.230;2023-04-03T15:14:56;7.87;;;7.03;;
10987;SDS011;5547;42.672;23.230;2023-04-03T15:17:57;7.83;;;7.03;;
10987;SDS011;5547;42.672;23.230;2023-04-03T15:20:58;7.70;;;6.90;;
10987;SDS011;5547;42.672;23.230;2023-04-03T15:23:58;8.00;;;6.57;;
10987;SDS011;5547;42.672;23.230;2023-04-03T15:26:59;7.83;;;6.93;;
10987;SDS011;5547;42.672;23.230;2023-04-03T15:30:00;9.65;;;7.53;;
10987;SDS011;5547;42.672;23.230;2023-04-03T15:33:03;8.02;;;6.80;;
10987;SDS011;5547;42.672;23.230;2023-04-03T15:36:04;6.65;;;5.95;;
10987;SDS011;5547;42.672;23.230;2023-04-03T15:39:05;7.57;;;6.65;;
10987;SDS011;5547;42.672;23.230;2023-04-03T15:42:05;8.40;;;7.60;;
10987;SDS011;5547;42.672;23.230;2023-04-03T15:45:06;10.35;;;9.23;;
10987;SDS011;5547;42.672;23.230;2023-04-03T15:48:07;10.32;;;9.23;;
10987;SDS011;5547;42.672;23.230;2023-04-03T15:51:09;10.27;;;9.10;;
10987;SDS011;5547;42.672;23.230;2023-04-03T15:54:10;12.25;;;10.18;;
10987;SDS011;5547;42.672;23.230;2023-04-03T15:57:11;12.00;;;10.70;;
10987;SDS011;5547;42.672;23.230;2023-04-03T16:00:11;14.57;;;13.07;;
10987;SDS011;5547;42.672;23.230;2023-04-03T16:03:15;16.20;;;13.18;;
10987;SDS011;5547;42.672;23.230;2023-04-03T16:06:17;17.33;;;14.75;;
10987;SDS011;5547;42.672;23.230;2023-04-03T16:09:18;21.23;;;17.07;;
10987;SDS011;5547;42.672;23.230;2023-04-03T16:12:19;14.50;;;13.00;;
10987;SDS011;5547;42.672;23.230;2023-04-03T16:15:20;16.83;;;14.10;;
10987;SDS011;5547;42.672;23.230;2023-04-03T16:18:20;11.00;;;9.82;;
10987;SDS011;5547;42.672;23.230;2023-04-03T16:21:21;11.70;;;9.17;;
10987;SDS011;5547;42.672;23.230;2023-04-03T16:24:22;14.60;;;11.50;;
10987;SDS011;5547;42.672;23.230;2023-04-03T16:27:23;13.35;;;11.90;;
10987;SDS011;5547;42.672;23.230;2023-04-03T16:30:28;12.82;;;11.15;;
10987;SDS011;5547;42.672;23.230;2023-04-03T16:33:29;14.73;;;12.82;;
10987;SDS011;5547;42.672;23.230;2023-04-03T16:36:30;10.95;;;9.25;;
10987;SDS011;5547;42.672;23.230;2023-04-03T16:39:30;10.60;;;8.40;;
10987;SDS011;5547;42.672;23.230;2023-04-03T16:42:30;11.03;;;9.90;;
10987;SDS011;5547;42.672;23.230;2023-04-03T16:45:31;7.80;;;6.67;;
10987;SDS011;5547;42.672;23.230;2023-04-03T16:48:31;10.45;;;8.57;;
10987;SDS011;5547;42.672;23.230;2023-04-03T16:51:32;7.60;;;6.43;;
10987;SDS011;5547;42.672;23.230;2023-04-03T16:54:32;8.43;;;6.43;;
10987;SDS011;5547;42.672;23.230;2023-04-03T16:57:33;7.97;;;6.90;;
10987;SDS011;5547;42.672;23.230;2023-04-03T17:00:33;10.02;;;8.10;;
10987;SDS011;5547;42.672;23.230;2023-04-03T17:03:34;6.37;;;5.73;;
10987;SDS011;5547;42.672;23.230;2023-04-03T17:06:34;9.27;;;8.20;;
10987;SDS011;5547;42.672;23.230;2023-04-03T17:09:35;7.07;;;6.37;;
10987;SDS011;5547;42.672;23.230;2023-04-03T17:12:35;6.75;;;5.57;;
10987;SDS011;5547;42.672;23.230;2023-04-03T17:15:36;6.20;;;5.40;;
10987;SDS011;5547;42.672;23.230;2023-04-03T17:18:36;6.87;;;6.00;;
10987;SDS011;5547;42.672;23.230;2023-04-03T17:21:37;7.45;;;5.43;;
10987;SDS011;5547;42.672;23.230;2023-04-03T17:24:38;6.57;;;5.20;;
10987;SDS011;5547;42.672;23.230;2023-04-03T17:27:38;7.10;;;5.77;;
10987;SDS011;5547;42.672;23.230;2023-04-03T17:30:39;7.57;;;6.30;;
10987;SDS011;5547;42.672;23.230;2023-04-03T17:33:40;8.85;;;7.15;;
10987;SDS011;5547;42.672;23.230;2023-04-03T17:36:40;9.67;;;7.83;;
10987;SDS011;5547;42.672;23.230;2023-04-03T17:39:41;8.85;;;7.05;;
10987;SDS011;5547;42.672;23.230;2023-04-03T17:42:42;8.10;;;6.37;;
10987;SDS011;5547;42.672;23.230;2023-04-03T17:45:42;8.30;;;7.03;;
10987;SDS011;5547;42.672;23.230;2023-04-03T17:48:43;8.17;;;7.10;;
10987;SDS011;5547;42.672;23.230;2023-04-03T17:51:44;9.88;;;7.50;;
10987;SDS011;5547;42.672;23.230;2023-04-03T17:54:45;9.13;;;6.80;;
10987;SDS011;5547;42.672;23.230;2023-04-03T17:57:45;7.93;;;6.20;;
10987;SDS011;5547;42.672;23.230;2023-04-03T18:00:46;8.52;;;6.95;;
10987;SDS011;5547;42.672;23.230;2023-04-03T18:03:47;8.77;;;7.13;;
10987;SDS011;5547;42.672;23.230;2023-04-03T18:06:50;10.98;;;8.25;;
10987;SDS011;5547;42.672;23.230;2023-04-03T18:09:54;15.20;;;12.20;;
10987;SDS011;5547;42.672;23.230;2023-04-03T18:12:56;9.13;;;7.93;;
10987;SDS011;5547;42.672;23.230;2023-04-03T18:15:56;6.95;;;5.45;;
10987;SDS011;5547;42.672;23.230;2023-04-03T18:18:57;6.80;;;6.03;;
10987;SDS011;5547;42.672;23.230;2023-04-03T18:22:02;5.80;;;5.00;;
10987;SDS011;5547;42.672;23.230;2023-04-03T18:25:05;5.53;;;4.43;;
10987;SDS011;5547;42.672;23.230;2023-04-03T18:28:06;4.68;;;4.20;;
10987;SDS011;5547;42.672;23.230;2023-04-03T18:31:07;4.68;;;4.18;;
10987;SDS011;5547;42.672;23.230;2023-04-03T18:34:12;5.22;;;3.95;;
10987;SDS011;5547;42.672;23.230;2023-04-03T18:37:12;6.67;;;5.20;;
10987;SDS011;5547;42.672;23.230;2023-04-03T18:40:14;6.45;;;3.63;;
10987;SDS011;5547;42.672;23.230;2023-04-03T18:43:14;3.93;;;3.43;;
10987;SDS011;5547;42.672;23.230;2023-04-03T18:46:15;3.95;;;2.78;;
10987;SDS011;5547;42.672;23.230;2023-04-03T18:49:15;4.13;;;3.10;;
10987;SDS011;5547;42.672;23.230;2023-04-03T18:52:17;4.85;;;3.72;;
10987;SDS011;5547;42.672;23.230;2023-04-03T18:55:17;5.53;;;3.90;;
10987;SDS011;5547;42.672;23.230;2023-04-03T18:58:19;4.82;;;4.10;;
10987;SDS011;5547;42.672;23.230;2023-04-03T19:01:19;3.20;;;2.80;;
10987;SDS011;5547;42.672;23.230;2023-04-03T19:04:20;4.00;;;3.00;;
10987;SDS011;5547;42.672;23.230;2023-04-03T19:07:21;4.70;;;2.90;;
10987;SDS011;5547;42.672;23.230;2023-04-03T19:10:22;5.40;;;3.58;;
10987;SDS011;5547;42.672;23.230;2023-04-03T19:13:22;4.53;;;3.20;;
10987;SDS011;5547;42.672;23.230;2023-04-03T19:16:23;3.77;;;2.70;;
10987;SDS011;5547;42.672;23.230;2023-04-03T19:19:23;4.43;;;2.80;;
10987;SDS011;5547;42.672;23.230;2023-04-03T19:22:24;4.05;;;3.20;;
10987;SDS011;5547;42.672;23.230;2023-04-03T19:25:24;4.50;;;3.20;;
10987;SDS011;5547;42.672;23.230;2023-04-03T19:28:25;3.50;;;2.97;;